sensor_id;sensor_type;location;lat;lon;timestamp;pressure;altitude;pressure_sealevel;temperature;humidity
47592;BME280;33317;33.356;-117.184;2024-03-25T00:01:32;98510.53;;;27.88;22.00
47592;BME280;33317;33.356;-117.184;2024-03-25T00:04:00;98518.97;;;27.89;22.00
47592;BME280;33317;33.356;-117.184;2024-03-25T00:06:29;98522.70;;;27.86;22.16
47592;BME280;33317;33.356;-117.184;2024-03-25T00:08:58;98518.67;;;27.84;22.17
47592;BME280;33317;33.356;-117.184;2024-03-25T00:11:26;98520.67;;;27.85;22.12
47592;BME280;33317;33.356;-117.184;2024-03-25T00:13:55;98505.63;;;27.83;22.04
47592;BME280;33317;33.356;-117.184;2024-03-25T00:16:23;98493.78;;;27.81;22.11
47592;BME280;33317;33.356;-117.184;2024-03-25T00:18:51;98487.18;;;27.75;22.03
47592;BME280;33317;33.356;-117.184;2024-03-25T00:21:20;98484.66;;;27.72;22.11
47592;BME280;33317;33.356;-117.184;2024-03-25T00:23:48;98488.52;;;27.66;22.24
47592;BME280;33317;33.356;-117.184;2024-03-25T00:26:16;98485.20;;;27.61;22.22
47592;BME280;33317;33.356;-117.184;2024-03-25T00:28:45;98490.46;;;27.57;22.26
47592;BME280;33317;33.356;-117.184;2024-03-25T00:31:13;98497.61;;;27.52;22.25
47592;BME280;33317;33.356;-117.184;2024-03-25T00:33:42;98494.73;;;27.91;22.34
47592;BME280;33317;33.356;-117.184;2024-03-25T00:36:10;98500.63;;;27.64;22.40
47592;BME280;33317;33.356;-117.184;2024-03-25T00:38:39;98500.97;;;27.83;22.42
47592;BME280;33317;33.356;-117.184;2024-03-25T00:41:08;98505.42;;;27.35;22.47
47592;BME280;33317;33.356;-117.184;2024-03-25T00:43:36;98507.71;;;27.55;22.47
47592;BME280;33317;33.356;-117.184;2024-03-25T00:46:04;98509.20;;;27.52;22.51
47592;BME280;33317;33.356;-117.184;2024-03-25T00:48:33;98504.24;;;27.13;22.63
47592;BME280;33317;33.356;-117.184;2024-03-25T00:51:01;98501.49;;;27.47;22.64
47592;BME280;33317;33.356;-117.184;2024-03-25T00:53:29;98501.77;;;27.27;22.70
47592;BME280;33317;33.356;-117.184;2024-03-25T00:55:58;98500.12;;;27.32;22.76
47592;BME280;33317;33.356;-117.184;2024-03-25T00:58:26;98508.38;;;27.58;22.76
47592;BME280;33317;33.356;-117.184;2024-03-25T01:00:55;98504.86;;;27.31;22.52
47592;BME280;33317;33.356;-117.184;2024-03-25T01:03:24;98511.95;;;27.12;22.87
47592;BME280;33317;33.356;-117.184;2024-03-25T01:05:52;98512.59;;;27.42;22.95
47592;BME280;33317;33.356;-117.184;2024-03-25T01:08:21;98509.69;;;27.24;22.86
47592;BME280;33317;33.356;-117.184;2024-03-25T01:10:49;98509.73;;;27.27;22.81
47592;BME280;33317;33.356;-117.184;2024-03-25T01:13:17;98512.75;;;27.51;22.94
47592;BME280;33317;33.356;-117.184;2024-03-25T01:15:46;98517.53;;;27.28;22.94
47592;BME280;33317;33.356;-117.184;2024-03-25T01:18:15;98516.48;;;27.54;22.91
47592;BME280;33317;33.356;-117.184;2024-03-25T01:20:44;98522.61;;;27.34;22.77
47592;BME280;33317;33.356;-117.184;2024-03-25T01:23:12;98522.44;;;27.06;22.83
47592;BME280;33317;33.356;-117.184;2024-03-25T01:25:40;98531.81;;;27.44;22.99
47592;BME280;33317;33.356;-117.184;2024-03-25T01:28:09;98527.83;;;27.19;23.04
47592;BME280;33317;33.356;-117.184;2024-03-25T01:30:37;98535.21;;;27.36;23.09
47592;BME280;33317;33.356;-117.184;2024-03-25T01:33:06;98529.33;;;27.14;23.11
47592;BME280;33317;33.356;-117.184;2024-03-25T01:35:34;98526.04;;;27.18;23.01
47592;BME280;33317;33.356;-117.184;2024-03-25T01:38:02;98528.62;;;27.04;23.37
47592;BME280;33317;33.356;-117.184;2024-03-25T01:40:32;98527.68;;;26.82;23.69
47592;BME280;33317;33.356;-117.184;2024-03-25T01:43:01;98527.18;;;26.82;24.04
47592;BME280;33317;33.356;-117.184;2024-03-25T01:45:31;98520.34;;;26.41;24.20
47592;BME280;33317;33.356;-117.184;2024-03-25T01:48:02;98516.31;;;26.73;24.47
47592;BME280;33317;33.356;-117.184;2024-03-25T01:50:35;98517.28;;;26.32;24.74
47592;BME280;33317;33.356;-117.184;2024-03-25T01:53:05;98509.67;;;26.36;24.99
47592;BME280;33317;33.356;-117.184;2024-03-25T01:55:35;98499.07;;;25.98;25.14
47592;BME280;33317;33.356;-117.184;2024-03-25T01:58:05;98498.93;;;25.83;25.40
47592;BME280;33317;33.356;-117.184;2024-03-25T02:00:33;98504.86;;;25.67;25.60
47592;BME280;33317;33.356;-117.184;2024-03-25T02:03:02;98511.95;;;25.74;25.69
47592;BME280;33317;33.356;-117.184;2024-03-25T02:05:31;98513.36;;;25.56;25.90
47592;BME280;33317;33.356;-117.184;2024-03-25T02:08:00;98515.45;;;25.68;26.00
47592;BME280;33317;33.356;-117.184;2024-03-25T02:10:30;98522.88;;;25.56;26.21
47592;BME280;33317;33.356;-117.184;2024-03-25T02:13:00;98526.71;;;25.51;26.36
47592;BME280;33317;33.356;-117.184;2024-03-25T02:15:28;98523.35;;;25.39;26.58
47592;BME280;33317;33.356;-117.184;2024-03-25T02:17:57;98525.72;;;25.60;26.66
47592;BME280;33317;33.356;-117.184;2024-03-25T02:20:26;98525.70;;;25.61;26.38
47592;BME280;33317;33.356;-117.184;2024-03-25T02:22:55;98522.32;;;25.51;26.63
47592;BME280;33317;33.356;-117.184;2024-03-25T02:25:24;98525.29;;;25.22;27.02
47592;BME280;33317;33.356;-117.184;2024-03-25T02:27:53;98528.58;;;25.29;26.92
47592;BME280;33317;33.356;-117.184;2024-03-25T02:30:23;98531.43;;;25.16;27.07
47592;BME280;33317;33.356;-117.184;2024-03-25T02:32:52;98535.52;;;25.17;27.05
47592;BME280;33317;33.356;-117.184;2024-03-25T02:35:22;98538.72;;;25.08;27.12
47592;BME280;33317;33.356;-117.184;2024-03-25T02:37:56;98541.32;;;24.94;27.37
47592;BME280;33317;33.356;-117.184;2024-03-25T02:40:25;98541.64;;;24.44;27.99
47592;BME280;33317;33.356;-117.184;2024-03-25T02:42:54;98544.63;;;24.84;27.88
47592;BME280;33317;33.356;-117.184;2024-03-25T02:45:26;98555.02;;;24.83;27.56
47592;BME280;33317;33.356;-117.184;2024-03-25T02:47:56;98568.03;;;24.48;28.51
47592;BME280;33317;33.356;-117.184;2024-03-25T02:50:24;98573.51;;;24.73;28.41
47592;BME280;33317;33.356;-117.184;2024-03-25T02:52:53;98578.11;;;23.90;28.83
47592;BME280;33317;33.356;-117.184;2024-03-25T02:55:22;98580.66;;;24.44;28.73
47592;BME280;33317;33.356;-117.184;2024-03-25T02:57:50;98586.65;;;24.21;28.70
47592;BME280;33317;33.356;-117.184;2024-03-25T03:00:21;98590.45;;;24.30;28.58
47592;BME280;33317;33.356;-117.184;2024-03-25T03:02:49;98595.60;;;23.69;29.33
47592;BME280;33317;33.356;-117.184;2024-03-25T03:05:19;98597.48;;;24.26;28.98
47592;BME280;33317;33.356;-117.184;2024-03-25T03:07:48;98592.07;;;24.58;28.53
47592;BME280;33317;33.356;-117.184;2024-03-25T03:10:16;98583.69;;;24.51;28.37
47592;BME280;33317;33.356;-117.184;2024-03-25T03:12:44;98582.22;;;24.42;28.47
47592;BME280;33317;33.356;-117.184;2024-03-25T03:15:13;98589.12;;;24.82;28.30
47592;BME280;33317;33.356;-117.184;2024-03-25T03:17:41;98598.44;;;24.90;28.61
47592;BME280;33317;33.356;-117.184;2024-03-25T03:20:10;98595.70;;;24.25;29.13
47592;BME280;33317;33.356;-117.184;2024-03-25T03:22:39;98594.61;;;23.87;29.69
47592;BME280;33317;33.356;-117.184;2024-03-25T03:25:08;98597.23;;;23.89;29.75
47592;BME280;33317;33.356;-117.184;2024-03-25T03:27:36;98606.51;;;24.09;29.33
47592;BME280;33317;33.356;-117.184;2024-03-25T03:30:05;98608.91;;;24.00;29.75
47592;BME280;33317;33.356;-117.184;2024-03-25T03:32:34;98614.84;;;24.35;29.33
47592;BME280;33317;33.356;-117.184;2024-03-25T03:35:03;98610.34;;;23.59;29.61
47592;BME280;33317;33.356;-117.184;2024-03-25T03:37:31;98610.70;;;23.86;29.97
47592;BME280;33317;33.356;-117.184;2024-03-25T03:40:00;98624.24;;;23.05;31.00
47592;BME280;33317;33.356;-117.184;2024-03-25T03:42:28;98623.44;;;23.26;30.82
47592;BME280;33317;33.356;-117.184;2024-03-25T03:44:57;98623.50;;;22.86;31.31
47592;BME280;33317;33.356;-117.184;2024-03-25T03:47:25;98616.04;;;22.19;32.26
47592;BME280;33317;33.356;-117.184;2024-03-25T03:49:56;98611.47;;;22.66;31.74
47592;BME280;33317;33.356;-117.184;2024-03-25T03:52:24;98615.08;;;22.66;31.64
47592;BME280;33317;33.356;-117.184;2024-03-25T03:54:53;98619.57;;;22.59;32.05
47592;BME280;33317;33.356;-117.184;2024-03-25T03:57:27;98623.91;;;22.35;32.40
47592;BME280;33317;33.356;-117.184;2024-03-25T03:59:55;98624.39;;;21.74;33.03
47592;BME280;33317;33.356;-117.184;2024-03-25T04:02:24;98628.72;;;22.15;32.72
47592;BME280;33317;33.356;-117.184;2024-03-25T04:04:52;98639.58;;;21.86;33.44
47592;BME280;33317;33.356;-117.184;2024-03-25T04:07:21;98644.57;;;21.92;32.60
47592;BME280;33317;33.356;-117.184;2024-03-25T04:09:49;98652.19;;;22.00;33.29
47592;BME280;33317;33.356;-117.184;2024-03-25T04:12:18;98654.99;;;21.96;33.35
47592;BME280;33317;33.356;-117.184;2024-03-25T04:14:47;98666.00;;;21.67;33.34
47592;BME280;33317;33.356;-117.184;2024-03-25T04:17:15;98676.21;;;21.85;33.49
47592;BME280;33317;33.356;-117.184;2024-03-25T04:19:44;98678.39;;;21.56;33.41
47592;BME280;33317;33.356;-117.184;2024-03-25T04:22:12;98679.58;;;21.31;33.78
47592;BME280;33317;33.356;-117.184;2024-03-25T04:24:40;98686.99;;;21.37;34.09
47592;BME280;33317;33.356;-117.184;2024-03-25T04:27:09;98681.38;;;21.10;33.82
47592;BME280;33317;33.356;-117.184;2024-03-25T04:29:37;98685.44;;;21.25;34.24
47592;BME280;33317;33.356;-117.184;2024-03-25T04:32:05;98686.65;;;20.83;34.88
47592;BME280;33317;33.356;-117.184;2024-03-25T04:34:35;98687.87;;;21.07;34.83
47592;BME280;33317;33.356;-117.184;2024-03-25T04:37:03;98687.29;;;21.00;34.41
47592;BME280;33317;33.356;-117.184;2024-03-25T04:39:31;98685.08;;;21.32;33.44
47592;BME280;33317;33.356;-117.184;2024-03-25T04:42:01;98689.64;;;20.80;34.93
47592;BME280;33317;33.356;-117.184;2024-03-25T04:44:30;98686.65;;;20.45;35.43
47592;BME280;33317;33.356;-117.184;2024-03-25T04:46:58;98688.67;;;20.33;35.53
47592;BME280;33317;33.356;-117.184;2024-03-25T04:49:27;98690.23;;;21.15;34.35
47592;BME280;33317;33.356;-117.184;2024-03-25T04:51:55;98693.25;;;21.01;34.70
47592;BME280;33317;33.356;-117.184;2024-03-25T04:54:23;98698.52;;;20.66;35.05
47592;BME280;33317;33.356;-117.184;2024-03-25T04:56:52;98702.62;;;20.52;35.44
47592;BME280;33317;33.356;-117.184;2024-03-25T04:59:21;98705.59;;;20.58;35.32
47592;BME280;33317;33.356;-117.184;2024-03-25T05:01:49;98712.66;;;20.77;35.03
47592;BME280;33317;33.356;-117.184;2024-03-25T05:04:17;98707.77;;;20.82;35.21
47592;BME280;33317;33.356;-117.184;2024-03-25T05:06:46;98701.41;;;20.69;35.54
47592;BME280;33317;33.356;-117.184;2024-03-25T05:09:15;98690.44;;;20.89;34.90
47592;BME280;33317;33.356;-117.184;2024-03-25T05:11:43;98693.39;;;21.22;35.15
47592;BME280;33317;33.356;-117.184;2024-03-25T05:14:11;98690.83;;;20.37;35.71
47592;BME280;33317;33.356;-117.184;2024-03-25T05:16:40;98685.22;;;20.62;35.35
47592;BME280;33317;33.356;-117.184;2024-03-25T05:19:08;98681.41;;;20.38;35.63
47592;BME280;33317;33.356;-117.184;2024-03-25T05:21:37;98683.36;;;20.66;35.28
47592;BME280;33317;33.356;-117.184;2024-03-25T05:24:05;98687.61;;;20.51;35.78
47592;BME280;33317;33.356;-117.184;2024-03-25T05:26:34;98688.49;;;20.21;35.91
47592;BME280;33317;33.356;-117.184;2024-03-25T05:29:02;98686.15;;;20.41;35.90
47592;BME280;33317;33.356;-117.184;2024-03-25T05:31:30;98678.88;;;20.32;36.01
47592;BME280;33317;33.356;-117.184;2024-03-25T05:33:59;98677.91;;;20.14;36.02
47592;BME280;33317;33.356;-117.184;2024-03-25T05:36:27;98674.34;;;20.21;36.19
47592;BME280;33317;33.356;-117.184;2024-03-25T05:38:56;98671.82;;;20.28;35.77
47592;BME280;33317;33.356;-117.184;2024-03-25T05:41:24;98674.48;;;20.37;35.61
47592;BME280;33317;33.356;-117.184;2024-03-25T05:43:53;98683.62;;;20.72;35.39
47592;BME280;33317;33.356;-117.184;2024-03-25T05:46:22;98695.70;;;20.50;35.89
47592;BME280;33317;33.356;-117.184;2024-03-25T05:48:50;98703.68;;;20.42;35.95
47592;BME280;33317;33.356;-117.184;2024-03-25T05:51:18;98711.68;;;20.59;35.53
47592;BME280;33317;33.356;-117.184;2024-03-25T05:53:47;98713.85;;;20.42;35.67
47592;BME280;33317;33.356;-117.184;2024-03-25T05:56:15;98711.09;;;20.39;35.45
47592;BME280;33317;33.356;-117.184;2024-03-25T05:58:44;98712.40;;;20.52;35.44
47592;BME280;33317;33.356;-117.184;2024-03-25T06:01:13;98714.52;;;20.35;35.43
47592;BME280;33317;33.356;-117.184;2024-03-25T06:03:41;98726.25;;;20.54;35.13
47592;BME280;33317;33.356;-117.184;2024-03-25T06:06:10;98731.64;;;20.78;35.09
47592;BME280;33317;33.356;-117.184;2024-03-25T06:08:39;98730.11;;;20.38;35.32
47592;BME280;33317;33.356;-117.184;2024-03-25T06:11:07;98725.12;;;20.54;35.55
47592;BME280;33317;33.356;-117.184;2024-03-25T06:13:36;98728.56;;;20.37;35.30
47592;BME280;33317;33.356;-117.184;2024-03-25T06:16:05;98725.47;;;20.71;35.41
47592;BME280;33317;33.356;-117.184;2024-03-25T06:18:33;98725.23;;;20.27;35.35
47592;BME280;33317;33.356;-117.184;2024-03-25T06:21:01;98723.59;;;20.66;35.42
47592;BME280;33317;33.356;-117.184;2024-03-25T06:23:30;98720.89;;;20.29;35.56
47592;BME280;33317;33.356;-117.184;2024-03-25T06:25:58;98724.64;;;20.46;35.65
47592;BME280;33317;33.356;-117.184;2024-03-25T06:28:26;98724.12;;;20.21;35.68
47592;BME280;33317;33.356;-117.184;2024-03-25T06:30:55;98726.15;;;20.13;35.58
47592;BME280;33317;33.356;-117.184;2024-03-25T06:33:23;98730.88;;;20.13;36.10
47592;BME280;33317;33.356;-117.184;2024-03-25T06:35:51;98735.63;;;19.68;36.24
47592;BME280;33317;33.356;-117.184;2024-03-25T06:38:20;98741.50;;;19.78;36.33
47592;BME280;33317;33.356;-117.184;2024-03-25T06:40:48;98744.19;;;19.58;36.83
47592;BME280;33317;33.356;-117.184;2024-03-25T06:43:17;98745.39;;;19.63;36.73
47592;BME280;33317;33.356;-117.184;2024-03-25T06:45:45;98744.92;;;19.95;36.83
47592;BME280;33317;33.356;-117.184;2024-03-25T06:48:13;98740.27;;;19.58;36.89
47592;BME280;33317;33.356;-117.184;2024-03-25T06:50:42;98742.29;;;19.68;36.81
47592;BME280;33317;33.356;-117.184;2024-03-25T06:53:19;98745.10;;;19.33;37.16
47592;BME280;33317;33.356;-117.184;2024-03-25T06:55:55;98735.70;;;19.60;36.63
47592;BME280;33317;33.356;-117.184;2024-03-25T06:58:25;98736.18;;;19.59;36.83
47592;BME280;33317;33.356;-117.184;2024-03-25T07:00:54;98736.31;;;19.51;36.80
47592;BME280;33317;33.356;-117.184;2024-03-25T07:03:23;98736.42;;;19.63;36.65
47592;BME280;33317;33.356;-117.184;2024-03-25T07:05:52;98740.61;;;19.74;36.44
47592;BME280;33317;33.356;-117.184;2024-03-25T07:08:21;98736.49;;;19.81;36.23
47592;BME280;33317;33.356;-117.184;2024-03-25T07:10:49;98735.11;;;19.63;36.64
47592;BME280;33317;33.356;-117.184;2024-03-25T07:13:18;98737.21;;;19.74;36.37
47592;BME280;33317;33.356;-117.184;2024-03-25T07:15:46;98736.80;;;19.50;36.74
47592;BME280;33317;33.356;-117.184;2024-03-25T07:18:15;98739.72;;;19.52;36.79
47592;BME280;33317;33.356;-117.184;2024-03-25T07:20:44;98747.96;;;19.57;36.92
47592;BME280;33317;33.356;-117.184;2024-03-25T07:23:12;98746.06;;;19.77;36.51
47592;BME280;33317;33.356;-117.184;2024-03-25T07:25:41;98748.25;;;19.05;37.30
47592;BME280;33317;33.356;-117.184;2024-03-25T07:28:09;98752.32;;;19.07;37.02
47592;BME280;33317;33.356;-117.184;2024-03-25T07:30:37;98750.99;;;19.23;36.90
47592;BME280;33317;33.356;-117.184;2024-03-25T07:33:06;98759.02;;;19.23;37.36
47592;BME280;33317;33.356;-117.184;2024-03-25T07:35:34;98762.10;;;19.58;36.94
47592;BME280;33317;33.356;-117.184;2024-03-25T07:38:03;98769.95;;;19.21;37.02
47592;BME280;33317;33.356;-117.184;2024-03-25T07:40:31;98775.42;;;19.43;37.16
47592;BME280;33317;33.356;-117.184;2024-03-25T07:42:59;98776.56;;;19.42;36.82
47592;BME280;33317;33.356;-117.184;2024-03-25T07:45:28;98776.51;;;19.38;36.81
47592;BME280;33317;33.356;-117.184;2024-03-25T07:47:56;98781.30;;;19.60;36.74
47592;BME280;33317;33.356;-117.184;2024-03-25T07:50:25;98782.67;;;18.98;37.28
47592;BME280;33317;33.356;-117.184;2024-03-25T07:52:53;98785.40;;;19.13;37.11
47592;BME280;33317;33.356;-117.184;2024-03-25T07:55:21;98787.41;;;19.13;37.67
47592;BME280;33317;33.356;-117.184;2024-03-25T07:57:50;98789.14;;;19.14;37.63
47592;BME280;33317;33.356;-117.184;2024-03-25T08:00:19;98788.56;;;18.84;37.54
47592;BME280;33317;33.356;-117.184;2024-03-25T08:02:47;98789.04;;;19.30;36.87
47592;BME280;33317;33.356;-117.184;2024-03-25T08:05:15;98791.13;;;19.65;36.90
47592;BME280;33317;33.356;-117.184;2024-03-25T08:07:43;98793.58;;;19.40;37.07
47592;BME280;33317;33.356;-117.184;2024-03-25T08:10:12;98795.39;;;19.43;36.57
47592;BME280;33317;33.356;-117.184;2024-03-25T08:12:40;98796.14;;;19.74;36.27
47592;BME280;33317;33.356;-117.184;2024-03-25T08:15:09;98797.04;;;19.35;36.39
47592;BME280;33317;33.356;-117.184;2024-03-25T08:17:37;98793.92;;;19.52;36.32
47592;BME280;33317;33.356;-117.184;2024-03-25T08:20:06;98796.86;;;19.55;36.56
47592;BME280;33317;33.356;-117.184;2024-03-25T08:22:35;98792.72;;;19.83;36.29
47592;BME280;33317;33.356;-117.184;2024-03-25T08:25:04;98787.41;;;19.03;37.07
47592;BME280;33317;33.356;-117.184;2024-03-25T08:27:32;98785.41;;;19.67;36.93
47592;BME280;33317;33.356;-117.184;2024-03-25T08:30:00;98785.50;;;19.48;36.77
47592;BME280;33317;33.356;-117.184;2024-03-25T08:32:28;98789.19;;;19.64;36.61
47592;BME280;33317;33.356;-117.184;2024-03-25T08:34:57;98790.55;;;19.58;36.88
47592;BME280;33317;33.356;-117.184;2024-03-25T08:37:25;98783.84;;;19.10;37.35
47592;BME280;33317;33.356;-117.184;2024-03-25T08:39:54;98779.62;;;19.08;37.32
47592;BME280;33317;33.356;-117.184;2024-03-25T08:42:22;98778.70;;;19.07;37.46
47592;BME280;33317;33.356;-117.184;2024-03-25T08:44:51;98779.96;;;19.27;37.06
47592;BME280;33317;33.356;-117.184;2024-03-25T08:47:19;98783.03;;;19.22;37.46
47592;BME280;33317;33.356;-117.184;2024-03-25T08:49:47;98782.19;;;19.13;37.28
47592;BME280;33317;33.356;-117.184;2024-03-25T08:52:16;98777.22;;;19.01;37.34
47592;BME280;33317;33.356;-117.184;2024-03-25T08:54:44;98774.40;;;19.13;37.15
47592;BME280;33317;33.356;-117.184;2024-03-25T08:57:13;98772.56;;;18.87;37.57
47592;BME280;33317;33.356;-117.184;2024-03-25T08:59:41;98768.14;;;19.15;37.50
47592;BME280;33317;33.356;-117.184;2024-03-25T09:02:09;98759.95;;;18.94;37.44
47592;BME280;33317;33.356;-117.184;2024-03-25T09:04:38;98756.12;;;18.89;37.52
47592;BME280;33317;33.356;-117.184;2024-03-25T09:07:07;98756.21;;;18.82;37.74
47592;BME280;33317;33.356;-117.184;2024-03-25T09:09:35;98763.08;;;18.88;37.88
47592;BME280;33317;33.356;-117.184;2024-03-25T09:12:03;98766.93;;;18.73;37.74
47592;BME280;33317;33.356;-117.184;2024-03-25T09:14:32;98770.43;;;19.18;37.31
47592;BME280;33317;33.356;-117.184;2024-03-25T09:17:00;98771.08;;;19.26;37.12
47592;BME280;33317;33.356;-117.184;2024-03-25T09:19:28;98766.07;;;19.15;37.04
47592;BME280;33317;33.356;-117.184;2024-03-25T09:21:57;98767.17;;;19.25;36.82
47592;BME280;33317;33.356;-117.184;2024-03-25T09:24:26;98768.85;;;19.35;36.84
47592;BME280;33317;33.356;-117.184;2024-03-25T09:26:54;98775.69;;;19.37;36.93
47592;BME280;33317;33.356;-117.184;2024-03-25T09:29:22;98787.46;;;18.89;37.34
47592;BME280;33317;33.356;-117.184;2024-03-25T09:31:50;98791.71;;;18.78;37.84
47592;BME280;33317;33.356;-117.184;2024-03-25T09:34:19;98794.33;;;18.52;37.91
47592;BME280;33317;33.356;-117.184;2024-03-25T09:36:47;98797.09;;;18.67;37.92
47592;BME280;33317;33.356;-117.184;2024-03-25T09:39:16;98801.80;;;18.62;37.99
47592;BME280;33317;33.356;-117.184;2024-03-25T09:41:45;98804.58;;;18.55;38.10
47592;BME280;33317;33.356;-117.184;2024-03-25T09:44:15;98801.72;;;18.55;38.08
47592;BME280;33317;33.356;-117.184;2024-03-25T09:46:44;98801.67;;;18.47;38.21
47592;BME280;33317;33.356;-117.184;2024-03-25T09:49:12;98803.30;;;18.28;38.27
47592;BME280;33317;33.356;-117.184;2024-03-25T09:51:40;98798.09;;;18.18;38.65
47592;BME280;33317;33.356;-117.184;2024-03-25T09:54:09;98792.55;;;18.10;38.67
47592;BME280;33317;33.356;-117.184;2024-03-25T09:56:38;98787.36;;;18.11;38.64
47592;BME280;33317;33.356;-117.184;2024-03-25T09:59:07;98780.13;;;18.17;38.60
47592;BME280;33317;33.356;-117.184;2024-03-25T10:01:36;98781.66;;;18.26;38.46
47592;BME280;33317;33.356;-117.184;2024-03-25T10:04:04;98782.69;;;17.92;38.87
47592;BME280;33317;33.356;-117.184;2024-03-25T10:06:32;98785.48;;;17.96;38.85
47592;BME280;33317;33.356;-117.184;2024-03-25T10:09:04;98788.88;;;18.10;38.53
47592;BME280;33317;33.356;-117.184;2024-03-25T10:11:33;98790.75;;;18.34;38.70
47592;BME280;33317;33.356;-117.184;2024-03-25T10:14:02;98791.67;;;17.87;38.98
47592;BME280;33317;33.356;-117.184;2024-03-25T10:16:30;98798.94;;;17.86;38.87
47592;BME280;33317;33.356;-117.184;2024-03-25T10:18:59;98805.79;;;17.77;39.16
47592;BME280;33317;33.356;-117.184;2024-03-25T10:21:27;98809.50;;;18.19;38.72
47592;BME280;33317;33.356;-117.184;2024-03-25T10:23:56;98811.00;;;17.96;38.69
47592;BME280;33317;33.356;-117.184;2024-03-25T10:26:28;98814.23;;;18.44;38.23
47592;BME280;33317;33.356;-117.184;2024-03-25T10:29:00;98812.79;;;17.93;38.70
47592;BME280;33317;33.356;-117.184;2024-03-25T10:31:28;98811.39;;;18.10;38.39
47592;BME280;33317;33.356;-117.184;2024-03-25T10:33:57;98808.90;;;17.81;38.80
47592;BME280;33317;33.356;-117.184;2024-03-25T10:36:26;98805.60;;;18.30;38.71
47592;BME280;33317;33.356;-117.184;2024-03-25T10:38:56;98805.83;;;17.68;38.88
47592;BME280;33317;33.356;-117.184;2024-03-25T10:41:25;98806.13;;;17.86;38.75
47592;BME280;33317;33.356;-117.184;2024-03-25T10:43:55;98810.99;;;17.98;38.37
47592;BME280;33317;33.356;-117.184;2024-03-25T10:46:27;98812.25;;;18.04;38.70
47592;BME280;33317;33.356;-117.184;2024-03-25T10:49:03;98812.96;;;18.06;38.72
47592;BME280;33317;33.356;-117.184;2024-03-25T10:51:33;98813.99;;;17.57;39.04
47592;BME280;33317;33.356;-117.184;2024-03-25T10:54:03;98813.56;;;18.03;39.05
47592;BME280;33317;33.356;-117.184;2024-03-25T10:56:31;98816.49;;;17.63;38.87
47592;BME280;33317;33.356;-117.184;2024-03-25T10:58:59;98820.58;;;17.76;38.91
47592;BME280;33317;33.356;-117.184;2024-03-25T11:01:29;98820.64;;;17.91;39.13
47592;BME280;33317;33.356;-117.184;2024-03-25T11:03:59;98819.33;;;17.47;39.06
47592;BME280;33317;33.356;-117.184;2024-03-25T11:06:27;98821.63;;;17.84;39.16
47592;BME280;33317;33.356;-117.184;2024-03-25T11:08:58;98822.96;;;17.86;39.18
47592;BME280;33317;33.356;-117.184;2024-03-25T11:11:32;98819.94;;;17.52;39.23
47592;BME280;33317;33.356;-117.184;2024-03-25T11:14:03;98820.59;;;17.81;39.24
47592;BME280;33317;33.356;-117.184;2024-03-25T11:16:32;98823.01;;;17.63;39.13
47592;BME280;33317;33.356;-117.184;2024-03-25T11:19:03;98831.14;;;17.59;38.98
47592;BME280;33317;33.356;-117.184;2024-03-25T11:21:31;98838.97;;;17.71;39.30
47592;BME280;33317;33.356;-117.184;2024-03-25T11:24:07;98836.92;;;17.24;39.14
47592;BME280;33317;33.356;-117.184;2024-03-25T11:26:40;98837.67;;;17.68;39.34
47592;BME280;33317;33.356;-117.184;2024-03-25T11:29:08;98842.94;;;17.64;39.28
47592;BME280;33317;33.356;-117.184;2024-03-25T11:31:39;98844.61;;;17.64;39.31
47592;BME280;33317;33.356;-117.184;2024-03-25T11:34:07;98844.72;;;17.62;39.39
47592;BME280;33317;33.356;-117.184;2024-03-25T11:36:36;98850.54;;;17.61;39.31
47592;BME280;33317;33.356;-117.184;2024-03-25T11:39:05;98854.22;;;17.75;38.99
47592;BME280;33317;33.356;-117.184;2024-03-25T11:41:33;98853.90;;;17.71;39.02
47592;BME280;33317;33.356;-117.184;2024-03-25T11:44:02;98850.41;;;17.56;39.31
47592;BME280;33317;33.356;-117.184;2024-03-25T11:46:31;98855.78;;;17.31;39.23
47592;BME280;33317;33.356;-117.184;2024-03-25T11:49:00;98862.18;;;17.65;39.04
47592;BME280;33317;33.356;-117.184;2024-03-25T11:51:28;98862.76;;;17.41;39.19
47592;BME280;33317;33.356;-117.184;2024-03-25T11:53:57;98869.26;;;17.27;38.83
47592;BME280;33317;33.356;-117.184;2024-03-25T11:56:25;98872.25;;;17.62;39.04
47592;BME280;33317;33.356;-117.184;2024-03-25T11:58:53;98876.08;;;17.49;39.32
47592;BME280;33317;33.356;-117.184;2024-03-25T12:01:22;98876.84;;;17.53;39.18
47592;BME280;33317;33.356;-117.184;2024-03-25T12:03:50;98880.19;;;17.45;39.40
47592;BME280;33317;33.356;-117.184;2024-03-25T12:06:18;98885.90;;;17.41;39.34
47592;BME280;33317;33.356;-117.184;2024-03-25T12:08:47;98887.25;;;17.33;39.42
47592;BME280;33317;33.356;-117.184;2024-03-25T12:11:16;98887.91;;;17.45;39.24
47592;BME280;33317;33.356;-117.184;2024-03-25T12:13:44;98889.98;;;17.44;39.24
47592;BME280;33317;33.356;-117.184;2024-03-25T12:16:13;98894.30;;;17.45;39.17
47592;BME280;33317;33.356;-117.184;2024-03-25T12:18:42;98892.79;;;17.26;39.42
47592;BME280;33317;33.356;-117.184;2024-03-25T12:21:10;98897.06;;;17.26;39.34
47592;BME280;33317;33.356;-117.184;2024-03-25T12:23:38;98897.26;;;17.50;39.38
47592;BME280;33317;33.356;-117.184;2024-03-25T12:26:07;98899.30;;;17.31;39.40
47592;BME280;33317;33.356;-117.184;2024-03-25T12:28:35;98900.17;;;17.24;39.32
47592;BME280;33317;33.356;-117.184;2024-03-25T12:31:08;98899.67;;;17.46;38.98
47592;BME280;33317;33.356;-117.184;2024-03-25T12:33:41;98897.95;;;17.15;39.49
47592;BME280;33317;33.356;-117.184;2024-03-25T12:36:09;98897.79;;;17.80;38.49
47592;BME280;33317;33.356;-117.184;2024-03-25T12:38:39;98905.08;;;17.07;38.84